createdAt,value
2023-03-17T00:00:30.373Z,23.10
2023-03-17T00:03:49.559Z,21.30
2023-03-17T00:10:19.629Z,22.75
2023-03-17T00:13:33.467Z,22.78
2023-03-17T00:16:48.679Z,22.70
2023-03-17T00:20:00.701Z,22.23
2023-03-17T00:23:18.505Z,21.93
2023-03-17T00:29:31.759Z,22.83
2023-03-17T00:32:45.693Z,22.80
2023-03-17T00:35:59.551Z,22.23
2023-03-17T00:39:19.432Z,23.35
2023-03-17T00:42:31.721Z,23.02
2023-03-17T00:45:44.646Z,23.38
2023-03-17T00:48:57.013Z,23.93
2023-03-17T00:52:09.722Z,24.58
2023-03-17T00:55:22.811Z,24.88
2023-03-17T00:58:37.673Z,25.15
2023-03-17T01:01:50.215Z,23.75
2023-03-17T01:05:06.726Z,23.68
2023-03-17T01:08:17.920Z,25.40
2023-03-17T01:11:29.980Z,24.98
2023-03-17T01:14:42.086Z,25.08
2023-03-17T01:17:55.996Z,22.48
2023-03-17T01:21:09.666Z,24.50
2023-03-17T01:24:21.973Z,26.33
2023-03-17T01:27:36.585Z,26.85
2023-03-17T01:30:50.384Z,22.20
2023-03-17T01:34:04.338Z,26.98
2023-03-17T01:37:17.253Z,27.35
2023-03-17T01:40:40.377Z,27.68
2023-03-17T01:43:55.224Z,26.30
2023-03-17T01:47:07.248Z,26.15
2023-03-17T01:50:19.812Z,29.40
2023-03-17T01:53:32.656Z,27.73
2023-03-17T01:56:49.231Z,29.60
2023-03-17T02:00:05.987Z,27.88
2023-03-17T02:03:20.618Z,27.68
2023-03-17T02:06:34.926Z,26.35
2023-03-17T02:09:48.694Z,26.35
2023-03-17T02:13:05.954Z,27.33
2023-03-17T02:16:21.995Z,26.58
2023-03-17T02:19:35.380Z,25.80
2023-03-17T02:22:47.425Z,25.43
2023-03-17T02:26:01.108Z,25.28
2023-03-17T02:29:13.220Z,25.55
2023-03-17T02:32:26.922Z,24.43
2023-03-17T02:35:41.612Z,24.95
2023-03-17T02:38:54.369Z,25.68
2023-03-17T02:42:07.175Z,24.00
2023-03-17T02:45:20.747Z,24.58
2023-03-17T02:48:34.240Z,24.80
2023-03-17T02:51:46.187Z,22.30
2023-03-17T02:54:58.647Z,25.25
2023-03-17T02:58:10.855Z,24.10
2023-03-17T03:01:23.112Z,24.55
2023-03-17T03:04:36.204Z,24.58
2023-03-17T03:07:48.304Z,25.13
2023-03-17T03:11:02.668Z,23.23
2023-03-17T03:14:15.951Z,23.70
2023-03-17T03:17:28.364Z,22.73
2023-03-17T03:20:40.384Z,23.23
2023-03-17T03:23:52.511Z,24.13
2023-03-17T03:27:04.582Z,23.75
2023-03-17T03:30:20.864Z,24.38
2023-03-17T03:33:34.012Z,22.60
2023-03-17T03:36:46.552Z,21.90
2023-03-17T03:39:59.084Z,22.45
2023-03-17T03:43:22.300Z,23.08
2023-03-17T03:46:26.843Z,25.75
2023-03-17T03:49:38.919Z,24.90
2023-03-17T03:52:51.202Z,27.28
2023-03-17T03:56:04.408Z,25.00
2023-03-17T03:59:16.743Z,26.33
2023-03-17T04:02:28.669Z,30.53
2023-03-17T04:05:41.096Z,26.95
2023-03-17T04:08:53.128Z,30.33
2023-03-17T04:12:04.991Z,34.58
2023-03-17T04:15:24.312Z,36.23
2023-03-17T04:18:36.408Z,37.10
2023-03-17T04:21:49.009Z,39.40
2023-03-17T04:25:01.125Z,38.93
2023-03-17T04:28:14.345Z,40.73
2023-03-17T04:31:26.884Z,39.08
2023-03-17T04:34:39.107Z,39.00
2023-03-17T04:37:51.728Z,41.05
2023-03-17T04:41:04.106Z,39.38
2023-03-17T04:44:18.734Z,37.60
2023-03-17T04:47:31.295Z,36.50
2023-03-17T04:50:43.326Z,38.50
2023-03-17T04:53:54.157Z,39.40
2023-03-17T04:57:09.225Z,40.05
2023-03-17T05:00:26.964Z,38.80
2023-03-17T05:03:39.995Z,37.35
2023-03-17T05:06:52.049Z,37.85
2023-03-17T05:10:04.321Z,40.38
2023-03-17T05:13:16.813Z,39.38
2023-03-17T05:16:29.021Z,35.78
2023-03-17T05:19:41.437Z,40.15
2023-03-17T05:22:53.746Z,40.40
2023-03-17T05:26:06.585Z,41.15
2023-03-17T05:29:19.391Z,38.98
2023-03-17T05:32:32.356Z,38.03
2023-03-17T05:35:44.562Z,39.53
2023-03-17T05:38:56.833Z,106.43
2023-03-17T05:42:09.346Z,56.73
2023-03-17T05:45:22.246Z,40.90
2023-03-17T05:48:35.173Z,40.68
2023-03-17T05:51:47.609Z,39.80
2023-03-17T05:54:59.985Z,41.53
2023-03-17T05:58:13.129Z,38.03
2023-03-17T06:01:25.347Z,39.40
2023-03-17T06:04:38.387Z,40.45
2023-03-17T06:07:54.931Z,89.60
2023-03-17T06:11:05.032Z,43.80
2023-03-17T06:14:17.271Z,40.08
2023-03-17T06:17:29.932Z,37.75
2023-03-17T06:20:42.253Z,38.78
2023-03-17T06:23:54.683Z,38.25
2023-03-17T06:27:06.953Z,59.28
2023-03-17T06:30:21.156Z,49.45
2023-03-17T06:33:34.554Z,36.80
2023-03-17T06:36:46.997Z,36.50
2023-03-17T06:40:01.037Z,35.35
2023-03-17T06:43:13.553Z,33.95
2023-03-17T06:46:25.643Z,33.28
2023-03-17T06:49:38.327Z,34.90
2023-03-17T06:52:50.435Z,29.28
2023-03-17T06:56:03.203Z,28.70
2023-03-17T06:59:15.805Z,28.18
2023-03-17T07:02:28.145Z,28.18
2023-03-17T07:05:40.527Z,26.48
2023-03-17T07:08:53.664Z,25.90
2023-03-17T07:12:06.710Z,27.03
2023-03-17T07:15:22.826Z,25.70
2023-03-17T07:18:36.162Z,25.85
2023-03-17T07:21:50.395Z,25.03
2023-03-17T07:25:08.631Z,24.68
2023-03-17T07:28:22.674Z,24.25
2023-03-17T07:31:37.546Z,22.38
2023-03-17T07:34:50.492Z,22.28
2023-03-17T07:38:05.364Z,21.58
2023-03-17T07:41:17.506Z,21.88
2023-03-17T07:44:30.461Z,22.78
2023-03-17T07:47:42.843Z,22.10
2023-03-17T07:50:54.919Z,21.05
2023-03-17T07:54:08.255Z,21.00
2023-03-17T07:57:20.930Z,33.88
2023-03-17T08:00:34.920Z,43.43
2023-03-17T08:03:48.084Z,24.65
2023-03-17T08:07:01.718Z,22.03
2023-03-17T08:10:18.498Z,19.75
2023-03-17T08:13:30.701Z,18.88
2023-03-17T08:16:43.059Z,17.25
2023-03-17T08:19:55.170Z,15.08
2023-03-17T08:23:07.602Z,9.13
2023-03-17T08:26:20.774Z,7.20
2023-03-17T08:29:33.773Z,7.30
2023-03-17T08:32:46.513Z,7.00
2023-03-17T08:35:59.255Z,8.75
2023-03-17T08:39:11.932Z,6.78
2023-03-17T08:42:24.055Z,9.95
2023-03-17T08:45:37.032Z,7.15
2023-03-17T08:48:51.078Z,6.93
2023-03-17T08:52:03.591Z,6.40
2023-03-17T08:55:17.964Z,6.03
2023-03-17T08:58:30.717Z,6.68
2023-03-17T09:01:45.063Z,6.35
2023-03-17T09:04:57.973Z,5.50
2023-03-17T09:08:10.115Z,5.95
2023-03-17T09:11:24.715Z,5.00
2023-03-17T09:14:43.532Z,6.25
2023-03-17T09:17:51.035Z,11.08
2023-03-17T09:21:03.724Z,8.43
2023-03-17T09:24:16.678Z,8.20
2023-03-17T09:27:28.813Z,4.70
2023-03-17T09:30:42.670Z,3.90
2023-03-17T09:33:56.633Z,4.13
2023-03-17T09:37:10.104Z,4.10
2023-03-17T09:40:28.541Z,3.98
2023-03-17T09:43:46.846Z,3.68
2023-03-17T09:47:07.014Z,3.80
2023-03-17T09:50:23.937Z,3.98
2023-03-17T09:53:40.088Z,4.05
2023-03-17T09:56:57.897Z,4.40
2023-03-17T10:00:19.131Z,13.38
2023-03-17T10:03:32.663Z,15.53
2023-03-17T10:06:48.625Z,4.10
2023-03-17T10:10:08.856Z,4.38
2023-03-17T10:13:35.824Z,4.75
2023-03-17T10:16:54.748Z,4.78
2023-03-17T10:20:11.733Z,5.25
2023-03-17T10:23:28.130Z,7.05
2023-03-17T10:26:46.222Z,10.53
2023-03-17T10:29:58.409Z,7.63
2023-03-17T10:33:12.547Z,5.80
2023-03-17T10:36:37.948Z,5.15
2023-03-17T10:39:56.283Z,5.80
2023-03-17T10:43:15.751Z,5.75
2023-03-17T10:46:31.455Z,5.03
2023-03-17T10:49:44.567Z,5.23
2023-03-17T10:53:03.531Z,4.60
2023-03-17T10:56:25.910Z,4.30
2023-03-17T10:59:44.921Z,13.08
2023-03-17T11:03:01.843Z,8.30
2023-03-17T11:06:16.991Z,5.95
2023-03-17T11:09:29.539Z,4.43
2023-03-17T11:12:46.458Z,4.70
2023-03-17T11:19:18.866Z,3.40
2023-03-17T11:22:38.228Z,4.15
2023-03-17T11:25:57.090Z,4.53
2023-03-17T11:29:29.222Z,4.53
2023-03-17T11:32:46.089Z,4.60
2023-03-17T11:39:19.086Z,4.38
2023-03-17T11:42:37.475Z,4.58
2023-03-17T11:45:55.079Z,9.33
2023-03-17T11:49:14.972Z,18.58
2023-03-17T11:52:32.703Z,8.43
2023-03-17T11:55:51.802Z,4.83
2023-03-17T11:59:08.855Z,4.10
2023-03-17T12:02:32.669Z,4.08
2023-03-17T12:05:47.362Z,4.18
2023-03-17T12:09:06.544Z,4.18
2023-03-17T12:12:22.349Z,3.95
2023-03-17T12:15:40.447Z,4.48
2023-03-17T12:19:00.849Z,4.03
2023-03-17T12:22:21.333Z,3.90
2023-03-17T12:25:37.528Z,6.20
2023-03-17T12:28:57.438Z,5.40
2023-03-17T12:32:17.388Z,5.43
2023-03-17T12:35:37.112Z,4.60
2023-03-17T12:38:57.315Z,5.30
2023-03-17T12:42:21.076Z,5.30
2023-03-17T12:45:57.496Z,4.30
2023-03-17T12:49:54.303Z,4.20
2023-03-17T12:53:31.045Z,4.80
2023-03-17T12:56:49.015Z,4.55
2023-03-17T13:00:10.329Z,4.15
2023-03-17T13:03:30.695Z,4.83
2023-03-17T13:06:49.196Z,4.75
2023-03-17T13:10:44.815Z,4.43
2023-03-17T13:14:23.351Z,4.13
2023-03-17T13:17:41.530Z,5.53
2023-03-17T13:21:13.896Z,4.88
2023-03-17T13:24:51.957Z,4.88
2023-03-17T13:28:28.036Z,5.00
2023-03-17T13:31:44.517Z,4.38
2023-03-17T13:34:59.624Z,4.85
2023-03-17T13:38:36.817Z,4.90
2023-03-17T13:42:30.235Z,4.43
2023-03-17T13:45:48.324Z,4.40
2023-03-17T13:49:01.746Z,4.15
2023-03-17T13:52:19.540Z,4.10
2023-03-17T13:55:46.125Z,4.35
2023-03-17T13:59:05.959Z,5.20
2023-03-17T14:02:24.913Z,4.83
2023-03-17T14:05:40.707Z,3.98
2023-03-17T14:08:58.021Z,4.13
2023-03-17T14:12:17.901Z,5.70
2023-03-17T14:15:35.269Z,4.23
2023-03-17T14:18:50.106Z,5.20
2023-03-17T14:22:08.858Z,5.38
2023-03-17T14:25:26.212Z,4.05
2023-03-17T14:28:40.672Z,4.05
2023-03-17T14:32:00.599Z,4.88
2023-03-17T14:35:19.003Z,4.00
2023-03-17T14:38:35.013Z,4.03
2023-03-17T14:41:47.033Z,3.70
2023-03-17T14:45:08.868Z,5.33
2023-03-17T14:48:25.418Z,49.98
2023-03-17T14:51:40.367Z,5.25
2023-03-17T14:54:56.406Z,4.23
2023-03-17T14:58:16.554Z,3.73
2023-03-17T15:01:39.720Z,3.48
2023-03-17T15:05:00.416Z,4.45
2023-03-17T15:08:46.297Z,3.88
2023-03-17T15:12:01.084Z,4.28
2023-03-17T15:15:25.912Z,3.93
2023-03-17T15:18:38.033Z,3.73
2023-03-17T15:21:50.748Z,4.35
2023-03-17T15:25:21.068Z,3.80
2023-03-17T15:28:37.016Z,6.18
2023-03-17T15:31:49.243Z,17.53
2023-03-17T15:35:05.096Z,5.90
2023-03-17T15:38:19.029Z,4.40
2023-03-17T15:41:31.370Z,4.53
2023-03-17T15:44:43.720Z,4.50
2023-03-17T15:47:56.360Z,4.50
2023-03-17T15:51:10.360Z,4.78
2023-03-17T15:54:23.033Z,25.75
2023-03-17T15:57:35.281Z,8.98
2023-03-17T16:00:49.935Z,6.15
2023-03-17T16:04:02.129Z,5.70
2023-03-17T16:07:18.982Z,6.20
2023-03-17T16:10:34.626Z,6.13
2023-03-17T16:13:46.906Z,5.68
2023-03-17T16:16:59.108Z,5.80
2023-03-17T16:20:16.898Z,5.50
2023-03-17T16:23:31.944Z,6.73
2023-03-17T16:26:45.087Z,7.68
2023-03-17T16:29:57.512Z,6.55
2023-03-17T16:33:18.470Z,7.25
2023-03-17T16:36:32.279Z,7.35
2023-03-17T16:39:45.289Z,7.65
2023-03-17T16:42:59.532Z,7.43
2023-03-17T16:46:14.475Z,7.30
2023-03-17T16:49:27.597Z,8.40
2023-03-17T16:52:40.054Z,8.23
2023-03-17T16:55:53.192Z,12.73
2023-03-17T16:59:06.064Z,10.58
2023-03-17T17:02:23.523Z,10.25
2023-03-17T17:05:37.073Z,9.75
2023-03-17T17:08:51.695Z,10.23
2023-03-17T17:12:04.014Z,12.50
2023-03-17T17:15:21.140Z,11.25
2023-03-17T17:18:35.410Z,11.25
2023-03-17T17:21:48.825Z,11.48
2023-03-17T17:25:01.389Z,11.55
2023-03-17T17:28:14.683Z,11.60
2023-03-17T17:31:27.111Z,12.95
2023-03-17T17:34:39.944Z,12.05
2023-03-17T17:37:52.428Z,13.88
2023-03-17T17:41:09.137Z,13.40
2023-03-17T17:44:21.278Z,13.50
2023-03-17T17:47:34.602Z,14.68
2023-03-17T17:50:47.008Z,13.05
2023-03-17T17:53:59.276Z,12.93
2023-03-17T17:57:12.108Z,12.33
2023-03-17T18:00:26.282Z,13.20
2023-03-17T18:03:40.507Z,12.20
2023-03-17T18:06:53.618Z,12.75
2023-03-17T18:10:06.184Z,13.28
2023-03-17T18:13:18.579Z,14.58
2023-03-17T18:16:31.638Z,13.18
2023-03-17T18:19:44.217Z,13.38
2023-03-17T18:22:56.945Z,13.60
2023-03-17T18:26:10.850Z,12.10
2023-03-17T18:29:23.473Z,11.58
2023-03-17T18:32:36.564Z,11.53
2023-03-17T18:35:51.146Z,11.28
2023-03-17T18:39:04.430Z,11.40
2023-03-17T18:42:17.627Z,12.45
2023-03-17T18:45:29.922Z,11.63
2023-03-17T18:48:42.341Z,13.45
2023-03-17T18:51:54.549Z,13.33
2023-03-17T18:55:07.477Z,15.60
2023-03-17T18:58:19.589Z,15.88
2023-03-17T19:01:32.454Z,16.03
2023-03-17T19:04:47.178Z,15.00
2023-03-17T19:07:59.449Z,16.23
2023-03-17T19:11:13.659Z,16.38
2023-03-17T19:14:25.908Z,15.28
2023-03-17T19:17:39.166Z,15.33
2023-03-17T19:20:51.507Z,16.00
2023-03-17T19:24:06.377Z,15.15
2023-03-17T19:27:18.576Z,16.55
2023-03-17T19:30:31.674Z,16.30
2023-03-17T19:33:44.666Z,15.20
2023-03-17T19:36:57.136Z,17.15
2023-03-17T19:40:13.456Z,16.18
2023-03-17T19:43:39.394Z,16.93
2023-03-17T19:46:41.526Z,17.08
2023-03-17T19:49:54.056Z,17.10
2023-03-17T19:53:06.452Z,17.78
2023-03-17T19:56:18.652Z,16.50
2023-03-17T19:59:31.183Z,17.25
2023-03-17T20:02:43.588Z,18.48
2023-03-17T20:05:57.542Z,17.70
2023-03-17T20:09:10.748Z,19.48
2023-03-17T20:12:22.901Z,19.50
2023-03-17T20:15:35.531Z,19.98
2023-03-17T20:18:47.902Z,21.05
2023-03-17T20:22:00.527Z,22.08
2023-03-17T20:25:15.649Z,20.63
2023-03-17T20:28:30.073Z,22.60
2023-03-17T20:31:43.879Z,19.63
2023-03-17T20:34:57.114Z,19.43
2023-03-17T20:38:10.086Z,18.03
2023-03-17T20:41:24.793Z,17.35
2023-03-17T20:44:36.930Z,17.20
2023-03-17T20:47:49.419Z,15.60
2023-03-17T20:51:04.042Z,15.75
2023-03-17T20:54:17.960Z,15.93
2023-03-17T20:57:30.447Z,16.15
2023-03-17T21:00:43.067Z,15.13
2023-03-17T21:03:56.628Z,15.28
2023-03-17T21:07:09.148Z,14.15
2023-03-17T21:10:22.619Z,14.50
2023-03-17T21:13:35.412Z,14.40
2023-03-17T21:16:48.556Z,14.75
2023-03-17T21:20:00.915Z,15.00
2023-03-17T21:23:13.443Z,14.08
2023-03-17T21:26:26.350Z,14.18
2023-03-17T21:29:40.508Z,15.10
2023-03-17T21:32:53.767Z,15.33
2023-03-17T21:36:06.645Z,14.73
2023-03-17T21:39:21.332Z,16.75
2023-03-17T21:42:33.844Z,17.70
2023-03-17T21:45:46.893Z,16.25
2023-03-17T21:48:59.400Z,15.60
2023-03-17T21:52:12.704Z,15.38
2023-03-17T21:55:25.474Z,15.63
2023-03-17T21:58:37.694Z,16.15
2023-03-17T22:01:52.205Z,16.38
2023-03-17T22:05:04.719Z,15.75
2023-03-17T22:08:17.034Z,17.55
2023-03-17T22:11:29.529Z,16.15
2023-03-17T22:14:42.203Z,17.70
2023-03-17T22:17:54.474Z,16.68
2023-03-17T22:21:08.242Z,16.83
2023-03-17T22:24:21.484Z,17.28
2023-03-17T22:27:33.702Z,17.15
2023-03-17T22:30:46.358Z,15.88
2023-03-17T22:34:02.241Z,16.75
2023-03-17T22:37:18.444Z,17.43
2023-03-17T22:40:33.071Z,16.13
2023-03-17T22:43:46.833Z,16.23
2023-03-17T22:46:59.359Z,16.18
2023-03-17T22:50:13.503Z,16.68
2023-03-17T22:53:25.769Z,17.88
2023-03-17T22:56:37.938Z,16.63
2023-03-17T22:59:52.058Z,16.90
2023-03-17T23:03:04.098Z,16.70
2023-03-17T23:06:19.582Z,16.55
2023-03-17T23:09:31.741Z,16.45
2023-03-17T23:12:44.004Z,17.03
2023-03-17T23:15:56.561Z,19.08
2023-03-17T23:19:08.738Z,17.30
2023-03-17T23:22:21.617Z,16.68
2023-03-17T23:25:34.043Z,16.13
2023-03-17T23:28:46.557Z,17.30
2023-03-17T23:31:58.825Z,17.85
2023-03-17T23:35:12.724Z,17.23
2023-03-17T23:38:25.834Z,17.43
2023-03-17T23:41:37.901Z,16.60
2023-03-17T23:44:50.453Z,16.40
2023-03-17T23:48:03.178Z,15.75
2023-03-17T23:51:16.275Z,17.55
2023-03-17T23:54:28.848Z,16.48
2023-03-17T23:57:41.624Z,17.18
